sensor_id;sensor_type;location;lat;lon;timestamp;temperature;humidity
59893;DHT22;45758;51.052;3.740;2022-11-03T00:01:56;14.00;99.90
59893;DHT22;45758;51.052;3.740;2022-11-03T00:04:22;13.90;99.90
59893;DHT22;45758;51.052;3.740;2022-11-03T00:06:50;13.80;99.90
59893;DHT22;45758;51.052;3.740;2022-11-03T00:09:17;13.80;99.90
59893;DHT22;45758;51.052;3.740;2022-11-03T00:11:45;13.80;99.90
59893;DHT22;45758;51.052;3.740;2022-11-03T00:14:12;13.80;99.90
59893;DHT22;45758;51.052;3.740;2022-11-03T00:16:41;13.80;99.90
59893;DHT22;45758;51.052;3.740;2022-11-03T00:19:09;13.80;99.90
59893;DHT22;45758;51.052;3.740;2022-11-03T00:21:35;13.80;99.90
59893;DHT22;45758;51.052;3.740;2022-11-03T00:24:01;13.70;99.90
59893;DHT22;45758;51.052;3.740;2022-11-03T00:26:30;13.70;99.90
59893;DHT22;45758;51.052;3.740;2022-11-03T00:28:59;13.70;99.90
59893;DHT22;45758;51.052;3.740;2022-11-03T00:31:28;13.80;99.90
59893;DHT22;45758;51.052;3.740;2022-11-03T00:33:55;13.70;99.90
59893;DHT22;45758;51.052;3.740;2022-11-03T00:36:25;13.70;99.90
59893;DHT22;45758;51.052;3.740;2022-11-03T00:38:52;13.70;99.90
59893;DHT22;45758;51.052;3.740;2022-11-03T00:41:19;13.60;99.90
59893;DHT22;45758;51.052;3.740;2022-11-03T00:43:46;13.60;99.90
59893;DHT22;45758;51.052;3.740;2022-11-03T00:46:13;13.50;99.90
59893;DHT22;45758;51.052;3.740;2022-11-03T00:48:39;13.60;99.90
59893;DHT22;45758;51.052;3.740;2022-11-03T00:51:12;13.60;99.90
59893;DHT22;45758;51.052;3.740;2022-11-03T00:53:44;13.60;99.90
59893;DHT22;45758;51.052;3.740;2022-11-03T00:56:12;13.60;99.90
59893;DHT22;45758;51.052;3.740;2022-11-03T00:58:38;13.60;99.90
59893;DHT22;45758;51.052;3.740;2022-11-03T01:01:10;13.60;99.90
59893;DHT22;45758;51.052;3.740;2022-11-03T01:03:38;13.50;99.90
59893;DHT22;45758;51.052;3.740;2022-11-03T01:06:08;13.50;99.90
59893;DHT22;45758;51.052;3.740;2022-11-03T01:08:54;13.60;99.90
59893;DHT22;45758;51.052;3.740;2022-11-03T01:11:22;13.50;99.90
59893;DHT22;45758;51.052;3.740;2022-11-03T01:14:09;13.50;99.90
59893;DHT22;45758;51.052;3.740;2022-11-03T01:16:35;13.60;99.90
59893;DHT22;45758;51.052;3.740;2022-11-03T01:19:01;13.60;99.90
59893;DHT22;45758;51.052;3.740;2022-11-03T01:21:27;13.70;99.90
59893;DHT22;45758;51.052;3.740;2022-11-03T01:23:53;13.70;99.90
59893;DHT22;45758;51.052;3.740;2022-11-03T01:26:19;13.70;99.90
59893;DHT22;45758;51.052;3.740;2022-11-03T01:28:46;13.70;99.90
59893;DHT22;45758;51.052;3.740;2022-11-03T01:31:20;13.70;99.90
59893;DHT22;45758;51.052;3.740;2022-11-03T01:33:50;13.70;99.90
59893;DHT22;45758;51.052;3.740;2022-11-03T01:36:16;13.70;99.90
59893;DHT22;45758;51.052;3.740;2022-11-03T01:38:42;13.60;99.90
59893;DHT22;45758;51.052;3.740;2022-11-03T01:41:16;13.60;99.90
59893;DHT22;45758;51.052;3.740;2022-11-03T01:43:42;13.70;99.90
59893;DHT22;45758;51.052;3.740;2022-11-03T01:51:33;13.70;99.90
59893;DHT22;45758;51.052;3.740;2022-11-03T01:54:05;13.70;99.90
59893;DHT22;45758;51.052;3.740;2022-11-03T01:56:34;13.80;99.90
59893;DHT22;45758;51.052;3.740;2022-11-03T01:59:02;13.80;99.90
59893;DHT22;45758;51.052;3.740;2022-11-03T02:01:29;13.80;99.90
59893;DHT22;45758;51.052;3.740;2022-11-03T02:04:03;13.80;99.90
59893;DHT22;45758;51.052;3.740;2022-11-03T02:06:30;13.80;99.90
59893;DHT22;45758;51.052;3.740;2022-11-03T02:09:01;13.80;99.90
59893;DHT22;45758;51.052;3.740;2022-11-03T02:11:28;13.80;99.90
59893;DHT22;45758;51.052;3.740;2022-11-03T02:14:13;13.80;99.90
59893;DHT22;45758;51.052;3.740;2022-11-03T02:16:40;13.80;99.90
59893;DHT22;45758;51.052;3.740;2022-11-03T02:19:17;13.80;99.90
59893;DHT22;45758;51.052;3.740;2022-11-03T02:24:36;13.70;99.90
59893;DHT22;45758;51.052;3.740;2022-11-03T02:27:06;13.80;99.90
59893;DHT22;45758;51.052;3.740;2022-11-03T02:29:32;13.80;99.90
59893;DHT22;45758;51.052;3.740;2022-11-03T02:35:22;13.70;99.90
59893;DHT22;45758;51.052;3.740;2022-11-03T02:37:54;13.70;99.90
59893;DHT22;45758;51.052;3.740;2022-11-03T02:40:27;13.70;99.90
59893;DHT22;45758;51.052;3.740;2022-11-03T02:42:55;13.80;99.90
59893;DHT22;45758;51.052;3.740;2022-11-03T02:45:23;13.80;99.90
59893;DHT22;45758;51.052;3.740;2022-11-03T02:47:49;13.80;99.90
59893;DHT22;45758;51.052;3.740;2022-11-03T02:50:17;13.80;99.90
59893;DHT22;45758;51.052;3.740;2022-11-03T02:52:47;13.70;99.90
59893;DHT22;45758;51.052;3.740;2022-11-03T02:55:34;13.80;99.90
59893;DHT22;45758;51.052;3.740;2022-11-03T02:58:21;13.70;99.90
59893;DHT22;45758;51.052;3.740;2022-11-03T03:01:02;13.70;99.90
59893;DHT22;45758;51.052;3.740;2022-11-03T03:03:51;13.70;99.90
59893;DHT22;45758;51.052;3.740;2022-11-03T03:06:29;13.70;99.90
59893;DHT22;45758;51.052;3.740;2022-11-03T03:09:10;13.80;99.90
59893;DHT22;45758;51.052;3.740;2022-11-03T03:11:40;13.70;99.90
59893;DHT22;45758;51.052;3.740;2022-11-03T03:14:17;13.70;99.90
59893;DHT22;45758;51.052;3.740;2022-11-03T03:16:59;13.70;99.90
59893;DHT22;45758;51.052;3.740;2022-11-03T03:25:07;13.70;99.90
59893;DHT22;45758;51.052;3.740;2022-11-03T03:27:39;13.80;99.90
59893;DHT22;45758;51.052;3.740;2022-11-03T03:30:06;13.80;99.90
59893;DHT22;45758;51.052;3.740;2022-11-03T03:32:38;13.80;99.90
59893;DHT22;45758;51.052;3.740;2022-11-03T03:35:08;13.80;99.90
59893;DHT22;45758;51.052;3.740;2022-11-03T03:37:38;13.80;99.90
59893;DHT22;45758;51.052;3.740;2022-11-03T03:40:09;13.70;99.90
59893;DHT22;45758;51.052;3.740;2022-11-03T03:42:37;13.70;99.90
59893;DHT22;45758;51.052;3.740;2022-11-03T03:45:07;13.60;99.90
59893;DHT22;45758;51.052;3.740;2022-11-03T03:47:34;13.70;99.90
59893;DHT22;45758;51.052;3.740;2022-11-03T03:50:00;13.70;99.90
59893;DHT22;45758;51.052;3.740;2022-11-03T03:52:28;13.70;99.90
59893;DHT22;45758;51.052;3.740;2022-11-03T03:54:55;13.70;99.90
59893;DHT22;45758;51.052;3.740;2022-11-03T03:57:22;13.80;99.90
59893;DHT22;45758;51.052;3.740;2022-11-03T03:59:49;13.80;99.90
59893;DHT22;45758;51.052;3.740;2022-11-03T04:02:15;13.80;99.90
59893;DHT22;45758;51.052;3.740;2022-11-03T04:04:41;13.80;99.90
59893;DHT22;45758;51.052;3.740;2022-11-03T04:07:07;13.80;99.90
59893;DHT22;45758;51.052;3.740;2022-11-03T04:09:51;13.90;99.90
59893;DHT22;45758;51.052;3.740;2022-11-03T04:12:17;13.80;99.90
59893;DHT22;45758;51.052;3.740;2022-11-03T04:15:02;13.80;99.90
59893;DHT22;45758;51.052;3.740;2022-11-03T04:17:47;13.90;99.90
59893;DHT22;45758;51.052;3.740;2022-11-03T04:20:33;13.80;99.90
59893;DHT22;45758;51.052;3.740;2022-11-03T04:23:18;13.80;99.90
59893;DHT22;45758;51.052;3.740;2022-11-03T04:25:49;13.80;99.90
59893;DHT22;45758;51.052;3.740;2022-11-03T04:28:19;13.80;99.90
59893;DHT22;45758;51.052;3.740;2022-11-03T04:30:45;13.80;99.90
59893;DHT22;45758;51.052;3.740;2022-11-03T04:33:19;13.80;99.90
59893;DHT22;45758;51.052;3.740;2022-11-03T04:35:46;13.80;99.90
59893;DHT22;45758;51.052;3.740;2022-11-03T04:40:54;13.80;99.90
59893;DHT22;45758;51.052;3.740;2022-11-03T04:43:27;13.90;99.90
59893;DHT22;45758;51.052;3.740;2022-11-03T04:45:54;13.90;99.90
59893;DHT22;45758;51.052;3.740;2022-11-03T04:48:24;13.90;99.90
59893;DHT22;45758;51.052;3.740;2022-11-03T04:50:56;13.90;99.90
59893;DHT22;45758;51.052;3.740;2022-11-03T04:53:23;13.90;99.90
59893;DHT22;45758;51.052;3.740;2022-11-03T04:55:53;13.90;99.90
59893;DHT22;45758;51.052;3.740;2022-11-03T05:00:50;13.90;99.90
59893;DHT22;45758;51.052;3.740;2022-11-03T05:03:31;13.90;99.90
59893;DHT22;45758;51.052;3.740;2022-11-03T05:06:07;13.80;99.90
59893;DHT22;45758;51.052;3.740;2022-11-03T05:08:34;13.90;99.90
59893;DHT22;45758;51.052;3.740;2022-11-03T05:11:00;13.90;99.90
59893;DHT22;45758;51.052;3.740;2022-11-03T05:13:29;13.90;99.90
59893;DHT22;45758;51.052;3.740;2022-11-03T05:16:03;13.90;99.90
59893;DHT22;45758;51.052;3.740;2022-11-03T05:18:32;13.80;99.90
59893;DHT22;45758;51.052;3.740;2022-11-03T05:21:14;13.80;99.90
59893;DHT22;45758;51.052;3.740;2022-11-03T05:23:52;13.80;99.90
59893;DHT22;45758;51.052;3.740;2022-11-03T05:26:25;13.80;99.90
59893;DHT22;45758;51.052;3.740;2022-11-03T05:28:56;13.90;99.90
59893;DHT22;45758;51.052;3.740;2022-11-03T05:31:28;13.90;99.90
59893;DHT22;45758;51.052;3.740;2022-11-03T05:34:34;13.90;99.90
59893;DHT22;45758;51.052;3.740;2022-11-03T05:39:48;14.00;99.90
59893;DHT22;45758;51.052;3.740;2022-11-03T05:42:35;14.00;99.90
59893;DHT22;45758;51.052;3.740;2022-11-03T05:45:28;13.90;99.90
59893;DHT22;45758;51.052;3.740;2022-11-03T05:47:54;13.90;99.90
59893;DHT22;45758;51.052;3.740;2022-11-03T05:50:23;13.90;99.90
59893;DHT22;45758;51.052;3.740;2022-11-03T05:52:52;14.00;99.90
59893;DHT22;45758;51.052;3.740;2022-11-03T05:55:30;13.90;99.90
59893;DHT22;45758;51.052;3.740;2022-11-03T05:58:11;13.90;99.90
59893;DHT22;45758;51.052;3.740;2022-11-03T06:00:41;14.00;99.90
59893;DHT22;45758;51.052;3.740;2022-11-03T06:03:14;13.90;99.90
59893;DHT22;45758;51.052;3.740;2022-11-03T06:05:41;13.90;99.90
59893;DHT22;45758;51.052;3.740;2022-11-03T06:08:18;13.90;99.90
59893;DHT22;45758;51.052;3.740;2022-11-03T06:10:49;14.00;99.90
59893;DHT22;45758;51.052;3.740;2022-11-03T06:13:24;13.90;99.90
59893;DHT22;45758;51.052;3.740;2022-11-03T06:15:57;14.00;99.90
59893;DHT22;45758;51.052;3.740;2022-11-03T06:18:28;14.00;99.90
59893;DHT22;45758;51.052;3.740;2022-11-03T06:20:57;14.00;99.90
59893;DHT22;45758;51.052;3.740;2022-11-03T06:23:24;14.10;99.90
59893;DHT22;45758;51.052;3.740;2022-11-03T06:25:55;14.20;99.90
59893;DHT22;45758;51.052;3.740;2022-11-03T06:28:25;14.20;99.90
59893;DHT22;45758;51.052;3.740;2022-11-03T06:30:55;14.10;99.90
59893;DHT22;45758;51.052;3.740;2022-11-03T06:33:29;14.20;99.90
59893;DHT22;45758;51.052;3.740;2022-11-03T06:36:02;14.20;99.90
59893;DHT22;45758;51.052;3.740;2022-11-03T06:38:30;14.30;99.90
59893;DHT22;45758;51.052;3.740;2022-11-03T06:40:59;14.20;99.90
59893;DHT22;45758;51.052;3.740;2022-11-03T06:43:40;14.20;99.90
59893;DHT22;45758;51.052;3.740;2022-11-03T06:46:18;14.20;99.90
59893;DHT22;45758;51.052;3.740;2022-11-03T06:48:45;14.20;99.90
59893;DHT22;45758;51.052;3.740;2022-11-03T06:51:21;14.10;99.90
59893;DHT22;45758;51.052;3.740;2022-11-03T06:53:49;14.20;99.90
59893;DHT22;45758;51.052;3.740;2022-11-03T06:56:21;14.20;99.90
59893;DHT22;45758;51.052;3.740;2022-11-03T06:58:49;14.30;99.90
59893;DHT22;45758;51.052;3.740;2022-11-03T07:01:29;14.30;99.90
59893;DHT22;45758;51.052;3.740;2022-11-03T07:04:18;14.30;99.90
59893;DHT22;45758;51.052;3.740;2022-11-03T07:06:43;14.30;99.90
59893;DHT22;45758;51.052;3.740;2022-11-03T07:09:16;14.40;99.90
59893;DHT22;45758;51.052;3.740;2022-11-03T07:11:49;14.40;99.90
59893;DHT22;45758;51.052;3.740;2022-11-03T07:14:26;14.40;99.90
59893;DHT22;45758;51.052;3.740;2022-11-03T07:17:15;14.30;99.90
59893;DHT22;45758;51.052;3.740;2022-11-03T07:19:43;14.40;99.90
59893;DHT22;45758;51.052;3.740;2022-11-03T07:22:17;14.30;99.90
59893;DHT22;45758;51.052;3.740;2022-11-03T07:24:46;14.30;99.90
59893;DHT22;45758;51.052;3.740;2022-11-03T07:27:31;14.30;99.90
59893;DHT22;45758;51.052;3.740;2022-11-03T07:32:43;14.30;99.90
59893;DHT22;45758;51.052;3.740;2022-11-03T07:35:46;14.30;99.90
59893;DHT22;45758;51.052;3.740;2022-11-03T07:38:14;14.40;99.90
59893;DHT22;45758;51.052;3.740;2022-11-03T07:40:40;14.30;99.90
59893;DHT22;45758;51.052;3.740;2022-11-03T07:43:17;14.30;99.90
59893;DHT22;45758;51.052;3.740;2022-11-03T07:45:54;14.20;99.90
59893;DHT22;45758;51.052;3.740;2022-11-03T07:48:23;14.20;99.90
59893;DHT22;45758;51.052;3.740;2022-11-03T07:51:03;14.30;99.90
59893;DHT22;45758;51.052;3.740;2022-11-03T07:53:35;14.50;99.90
59893;DHT22;45758;51.052;3.740;2022-11-03T07:56:34;14.60;99.90
59893;DHT22;45758;51.052;3.740;2022-11-03T07:59:00;14.70;99.90
59893;DHT22;45758;51.052;3.740;2022-11-03T08:01:37;14.70;99.90
59893;DHT22;45758;51.052;3.740;2022-11-03T08:04:06;14.70;99.90
59893;DHT22;45758;51.052;3.740;2022-11-03T08:06:32;14.70;99.90
59893;DHT22;45758;51.052;3.740;2022-11-03T08:08:59;14.80;99.90
59893;DHT22;45758;51.052;3.740;2022-11-03T08:11:25;14.90;99.90
59893;DHT22;45758;51.052;3.740;2022-11-03T08:13:51;14.90;99.90
59893;DHT22;45758;51.052;3.740;2022-11-03T08:16:17;14.90;99.90
59893;DHT22;45758;51.052;3.740;2022-11-03T08:18:44;14.90;99.90
59893;DHT22;45758;51.052;3.740;2022-11-03T08:21:10;14.80;99.90
59893;DHT22;45758;51.052;3.740;2022-11-03T08:23:36;14.80;99.90
59893;DHT22;45758;51.052;3.740;2022-11-03T08:26:02;14.90;99.90
59893;DHT22;45758;51.052;3.740;2022-11-03T08:28:28;14.90;99.90
59893;DHT22;45758;51.052;3.740;2022-11-03T08:30:54;14.90;99.90
59893;DHT22;45758;51.052;3.740;2022-11-03T08:33:26;14.80;99.90
59893;DHT22;45758;51.052;3.740;2022-11-03T08:35:52;14.80;99.90
59893;DHT22;45758;51.052;3.740;2022-11-03T08:38:18;14.80;99.90
59893;DHT22;45758;51.052;3.740;2022-11-03T08:40:44;14.90;99.90
59893;DHT22;45758;51.052;3.740;2022-11-03T08:43:09;15.00;99.90
59893;DHT22;45758;51.052;3.740;2022-11-03T08:45:35;15.00;99.90
59893;DHT22;45758;51.052;3.740;2022-11-03T08:48:01;15.00;99.90
59893;DHT22;45758;51.052;3.740;2022-11-03T08:50:27;15.00;99.90
59893;DHT22;45758;51.052;3.740;2022-11-03T08:52:54;15.10;99.90
59893;DHT22;45758;51.052;3.740;2022-11-03T08:55:20;15.00;99.90
59893;DHT22;45758;51.052;3.740;2022-11-03T08:57:46;15.00;99.90
59893;DHT22;45758;51.052;3.740;2022-11-03T09:00:12;15.00;99.90
59893;DHT22;45758;51.052;3.740;2022-11-03T09:02:38;15.00;99.90
59893;DHT22;45758;51.052;3.740;2022-11-03T09:05:04;15.00;99.90
59893;DHT22;45758;51.052;3.740;2022-11-03T09:07:32;15.10;99.90
59893;DHT22;45758;51.052;3.740;2022-11-03T09:09:58;15.10;99.90
59893;DHT22;45758;51.052;3.740;2022-11-03T09:12:23;15.20;99.90
59893;DHT22;45758;51.052;3.740;2022-11-03T09:14:49;15.20;99.90
59893;DHT22;45758;51.052;3.740;2022-11-03T09:17:15;15.20;99.90
59893;DHT22;45758;51.052;3.740;2022-11-03T09:19:41;15.30;99.90
59893;DHT22;45758;51.052;3.740;2022-11-03T09:22:07;15.30;99.90
59893;DHT22;45758;51.052;3.740;2022-11-03T09:24:33;15.40;99.90
59893;DHT22;45758;51.052;3.740;2022-11-03T09:26:58;15.50;99.90
59893;DHT22;45758;51.052;3.740;2022-11-03T09:29:24;15.50;99.90
59893;DHT22;45758;51.052;3.740;2022-11-03T09:31:50;15.60;99.90
59893;DHT22;45758;51.052;3.740;2022-11-03T09:34:16;15.70;99.90
59893;DHT22;45758;51.052;3.740;2022-11-03T09:36:42;15.70;99.90
59893;DHT22;45758;51.052;3.740;2022-11-03T09:39:08;15.70;99.90
59893;DHT22;45758;51.052;3.740;2022-11-03T09:41:34;15.70;99.90
59893;DHT22;45758;51.052;3.740;2022-11-03T09:44:00;15.80;99.90
59893;DHT22;45758;51.052;3.740;2022-11-03T09:46:27;15.80;99.90
59893;DHT22;45758;51.052;3.740;2022-11-03T09:48:54;15.80;99.90
59893;DHT22;45758;51.052;3.740;2022-11-03T09:51:21;15.80;99.90
59893;DHT22;45758;51.052;3.740;2022-11-03T09:53:48;15.80;99.90
59893;DHT22;45758;51.052;3.740;2022-11-03T09:56:20;15.80;99.90
59893;DHT22;45758;51.052;3.740;2022-11-03T09:58:46;15.80;99.90
59893;DHT22;45758;51.052;3.740;2022-11-03T10:01:12;15.80;99.90
59893;DHT22;45758;51.052;3.740;2022-11-03T10:03:38;16.00;99.90
59893;DHT22;45758;51.052;3.740;2022-11-03T10:06:05;16.00;99.90
59893;DHT22;45758;51.052;3.740;2022-11-03T10:08:32;16.00;99.90
59893;DHT22;45758;51.052;3.740;2022-11-03T10:11:00;16.00;99.90
59893;DHT22;45758;51.052;3.740;2022-11-03T10:16:05;16.30;99.90
59893;DHT22;45758;51.052;3.740;2022-11-03T10:18:33;16.40;99.90
59893;DHT22;45758;51.052;3.740;2022-11-03T10:21:12;16.60;99.90
59893;DHT22;45758;51.052;3.740;2022-11-03T10:23:39;16.80;99.90
59893;DHT22;45758;51.052;3.740;2022-11-03T10:26:16;16.80;99.90
59893;DHT22;45758;51.052;3.740;2022-11-03T10:29:05;16.90;99.90
59893;DHT22;45758;51.052;3.740;2022-11-03T10:31:35;17.00;99.90
59893;DHT22;45758;51.052;3.740;2022-11-03T10:34:02;17.10;99.90
59893;DHT22;45758;51.052;3.740;2022-11-03T10:36:31;17.20;99.90
59893;DHT22;45758;51.052;3.740;2022-11-03T10:38:58;17.20;99.90
59893;DHT22;45758;51.052;3.740;2022-11-03T10:41:30;17.20;99.90
59893;DHT22;45758;51.052;3.740;2022-11-03T10:46:39;17.10;99.90
59893;DHT22;45758;51.052;3.740;2022-11-03T10:49:11;17.00;99.90
59893;DHT22;45758;51.052;3.740;2022-11-03T10:51:40;17.20;99.90
59893;DHT22;45758;51.052;3.740;2022-11-03T10:54:13;17.20;99.90
59893;DHT22;45758;51.052;3.740;2022-11-03T10:56:40;17.30;99.90
59893;DHT22;45758;51.052;3.740;2022-11-03T10:59:17;17.50;99.90
59893;DHT22;45758;51.052;3.740;2022-11-03T11:01:44;17.50;99.90
59893;DHT22;45758;51.052;3.740;2022-11-03T11:04:17;17.60;99.90
59893;DHT22;45758;51.052;3.740;2022-11-03T11:06:43;17.50;99.90
59893;DHT22;45758;51.052;3.740;2022-11-03T11:09:13;17.50;99.90
59893;DHT22;45758;51.052;3.740;2022-11-03T11:12:01;17.50;99.90
59893;DHT22;45758;51.052;3.740;2022-11-03T11:16:58;17.70;99.90
59893;DHT22;45758;51.052;3.740;2022-11-03T11:19:26;17.70;99.90
59893;DHT22;45758;51.052;3.740;2022-11-03T11:30:00;17.90;99.90
59893;DHT22;45758;51.052;3.740;2022-11-03T11:37:39;17.70;99.90
59893;DHT22;45758;51.052;3.740;2022-11-03T11:48:34;18.10;99.90
59893;DHT22;45758;51.052;3.740;2022-11-03T11:51:00;18.20;99.90
59893;DHT22;45758;51.052;3.740;2022-11-03T11:53:30;18.20;99.90
59893;DHT22;45758;51.052;3.740;2022-11-03T11:56:00;18.10;99.90
59893;DHT22;45758;51.052;3.740;2022-11-03T12:01:18;18.00;99.90
59893;DHT22;45758;51.052;3.740;2022-11-03T12:03:45;17.90;99.90
59893;DHT22;45758;51.052;3.740;2022-11-03T12:06:14;17.80;99.90
59893;DHT22;45758;51.052;3.740;2022-11-03T12:08:41;17.90;99.90
59893;DHT22;45758;51.052;3.740;2022-11-03T12:11:10;17.90;99.90
59893;DHT22;45758;51.052;3.740;2022-11-03T12:13:49;18.00;99.90
59893;DHT22;45758;51.052;3.740;2022-11-03T12:16:32;18.10;99.90
59893;DHT22;45758;51.052;3.740;2022-11-03T12:22:08;18.10;99.90
59893;DHT22;45758;51.052;3.740;2022-11-03T12:24:45;18.20;99.90
59893;DHT22;45758;51.052;3.740;2022-11-03T12:30:14;18.30;99.90
59893;DHT22;45758;51.052;3.740;2022-11-03T12:32:40;18.40;99.90
59893;DHT22;45758;51.052;3.740;2022-11-03T12:35:08;18.40;99.90
59893;DHT22;45758;51.052;3.740;2022-11-03T12:37:34;18.50;99.90
59893;DHT22;45758;51.052;3.740;2022-11-03T12:40:01;18.50;99.90
59893;DHT22;45758;51.052;3.740;2022-11-03T12:42:26;18.60;99.90
59893;DHT22;45758;51.052;3.740;2022-11-03T12:44:52;18.60;99.90
59893;DHT22;45758;51.052;3.740;2022-11-03T12:47:21;18.50;99.90
59893;DHT22;45758;51.052;3.740;2022-11-03T12:49:53;18.30;99.90
59893;DHT22;45758;51.052;3.740;2022-11-03T12:52:19;18.30;99.90
59893;DHT22;45758;51.052;3.740;2022-11-03T12:54:45;18.30;99.90
59893;DHT22;45758;51.052;3.740;2022-11-03T12:57:11;18.40;99.90
59893;DHT22;45758;51.052;3.740;2022-11-03T12:59:37;18.40;99.90
59893;DHT22;45758;51.052;3.740;2022-11-03T13:02:03;18.30;99.90
59893;DHT22;45758;51.052;3.740;2022-11-03T13:04:29;18.30;99.90
59893;DHT22;45758;51.052;3.740;2022-11-03T13:06:55;18.20;99.90
59893;DHT22;45758;51.052;3.740;2022-11-03T13:09:21;18.10;99.90
59893;DHT22;45758;51.052;3.740;2022-11-03T13:11:46;18.00;99.90
59893;DHT22;45758;51.052;3.740;2022-11-03T13:14:31;17.90;99.90
59893;DHT22;45758;51.052;3.740;2022-11-03T13:16:56;17.90;99.90
59893;DHT22;45758;51.052;3.740;2022-11-03T13:19:23;17.80;99.90
59893;DHT22;45758;51.052;3.740;2022-11-03T13:21:48;17.90;99.90
59893;DHT22;45758;51.052;3.740;2022-11-03T13:24:14;17.90;99.90
59893;DHT22;45758;51.052;3.740;2022-11-03T13:26:40;17.90;99.90
59893;DHT22;45758;51.052;3.740;2022-11-03T13:29:09;17.80;99.90
59893;DHT22;45758;51.052;3.740;2022-11-03T13:31:34;17.70;99.90
59893;DHT22;45758;51.052;3.740;2022-11-03T13:34:01;17.70;99.90
59893;DHT22;45758;51.052;3.740;2022-11-03T13:36:27;17.80;99.90
59893;DHT22;45758;51.052;3.740;2022-11-03T13:38:53;17.90;99.90
59893;DHT22;45758;51.052;3.740;2022-11-03T13:41:19;17.90;99.90
59893;DHT22;45758;51.052;3.740;2022-11-03T13:43:45;17.90;99.90
59893;DHT22;45758;51.052;3.740;2022-11-03T13:46:11;18.00;99.90
59893;DHT22;45758;51.052;3.740;2022-11-03T13:48:37;17.90;99.90
59893;DHT22;45758;51.052;3.740;2022-11-03T13:51:03;17.80;99.90
59893;DHT22;45758;51.052;3.740;2022-11-03T13:53:29;17.70;99.90
59893;DHT22;45758;51.052;3.740;2022-11-03T13:55:55;17.70;99.90
59893;DHT22;45758;51.052;3.740;2022-11-03T13:58:20;17.60;99.90
59893;DHT22;45758;51.052;3.740;2022-11-03T14:00:46;17.50;99.90
59893;DHT22;45758;51.052;3.740;2022-11-03T14:03:13;17.40;99.90
59893;DHT22;45758;51.052;3.740;2022-11-03T14:05:39;17.30;99.90
59893;DHT22;45758;51.052;3.740;2022-11-03T14:08:04;17.30;99.90
59893;DHT22;45758;51.052;3.740;2022-11-03T14:10:30;17.30;99.90
59893;DHT22;45758;51.052;3.740;2022-11-03T14:12:56;17.20;99.90
59893;DHT22;45758;51.052;3.740;2022-11-03T14:15:23;17.10;99.90
59893;DHT22;45758;51.052;3.740;2022-11-03T14:17:51;17.00;99.90
59893;DHT22;45758;51.052;3.740;2022-11-03T14:20:17;16.90;99.90
59893;DHT22;45758;51.052;3.740;2022-11-03T14:22:43;16.90;99.90
59893;DHT22;45758;51.052;3.740;2022-11-03T14:25:09;16.90;99.90
59893;DHT22;45758;51.052;3.740;2022-11-03T14:27:34;16.90;99.90
59893;DHT22;45758;51.052;3.740;2022-11-03T14:30:01;16.80;99.90
59893;DHT22;45758;51.052;3.740;2022-11-03T14:32:27;16.80;99.90
59893;DHT22;45758;51.052;3.740;2022-11-03T14:34:53;16.70;99.90
59893;DHT22;45758;51.052;3.740;2022-11-03T14:37:19;16.60;99.90
59893;DHT22;45758;51.052;3.740;2022-11-03T14:39:45;16.50;99.90
59893;DHT22;45758;51.052;3.740;2022-11-03T14:42:12;16.40;99.90
59893;DHT22;45758;51.052;3.740;2022-11-03T14:44:42;16.20;99.90
59893;DHT22;45758;51.052;3.740;2022-11-03T14:47:10;16.20;99.90
59893;DHT22;45758;51.052;3.740;2022-11-03T14:49:37;16.20;99.90
59893;DHT22;45758;51.052;3.740;2022-11-03T14:52:04;16.10;99.90
59893;DHT22;45758;51.052;3.740;2022-11-03T14:54:32;16.10;99.90
59893;DHT22;45758;51.052;3.740;2022-11-03T14:56:58;16.10;99.90
59893;DHT22;45758;51.052;3.740;2022-11-03T14:59:24;16.00;99.90
59893;DHT22;45758;51.052;3.740;2022-11-03T15:01:51;15.90;99.90
59893;DHT22;45758;51.052;3.740;2022-11-03T15:04:17;15.90;99.90
59893;DHT22;45758;51.052;3.740;2022-11-03T15:06:43;15.80;99.90
59893;DHT22;45758;51.052;3.740;2022-11-03T15:09:10;15.70;99.90
59893;DHT22;45758;51.052;3.740;2022-11-03T15:11:38;15.60;99.90
59893;DHT22;45758;51.052;3.740;2022-11-03T15:14:04;15.50;99.90
59893;DHT22;45758;51.052;3.740;2022-11-03T15:16:30;15.40;99.90
59893;DHT22;45758;51.052;3.740;2022-11-03T15:18:59;15.40;99.90
59893;DHT22;45758;51.052;3.740;2022-11-03T15:21:24;15.20;99.90
59893;DHT22;45758;51.052;3.740;2022-11-03T15:23:50;15.10;99.90
59893;DHT22;45758;51.052;3.740;2022-11-03T15:26:17;14.90;99.90
59893;DHT22;45758;51.052;3.740;2022-11-03T15:28:43;14.90;99.90
59893;DHT22;45758;51.052;3.740;2022-11-03T15:31:09;14.90;99.90
59893;DHT22;45758;51.052;3.740;2022-11-03T15:33:35;14.80;99.90
59893;DHT22;45758;51.052;3.740;2022-11-03T15:36:00;14.60;99.90
59893;DHT22;45758;51.052;3.740;2022-11-03T15:38:29;14.60;99.90
59893;DHT22;45758;51.052;3.740;2022-11-03T15:40:55;14.40;99.90
59893;DHT22;45758;51.052;3.740;2022-11-03T15:43:47;14.40;99.90
59893;DHT22;45758;51.052;3.740;2022-11-03T15:46:15;14.30;99.90
59893;DHT22;45758;51.052;3.740;2022-11-03T15:48:41;14.30;99.90
59893;DHT22;45758;51.052;3.740;2022-11-03T15:51:07;14.10;99.90
59893;DHT22;45758;51.052;3.740;2022-11-03T15:53:34;14.10;99.90
59893;DHT22;45758;51.052;3.740;2022-11-03T15:56:00;14.10;99.90
59893;DHT22;45758;51.052;3.740;2022-11-03T15:58:26;13.90;99.90
59893;DHT22;45758;51.052;3.740;2022-11-03T16:00:58;13.80;99.90
59893;DHT22;45758;51.052;3.740;2022-11-03T16:03:24;13.80;99.90
59893;DHT22;45758;51.052;3.740;2022-11-03T16:05:50;13.80;99.90
59893;DHT22;45758;51.052;3.740;2022-11-03T16:08:16;13.90;99.90
59893;DHT22;45758;51.052;3.740;2022-11-03T16:10:42;13.90;99.90
59893;DHT22;45758;51.052;3.740;2022-11-03T16:13:08;13.80;99.90
59893;DHT22;45758;51.052;3.740;2022-11-03T16:15:34;13.80;99.90
59893;DHT22;45758;51.052;3.740;2022-11-03T16:18:00;13.80;99.90
59893;DHT22;45758;51.052;3.740;2022-11-03T16:20:28;13.80;99.90
59893;DHT22;45758;51.052;3.740;2022-11-03T16:22:54;13.80;99.90
59893;DHT22;45758;51.052;3.740;2022-11-03T16:25:20;13.90;99.90
59893;DHT22;45758;51.052;3.740;2022-11-03T16:27:45;13.90;99.90
59893;DHT22;45758;51.052;3.740;2022-11-03T16:30:11;13.80;99.90
59893;DHT22;45758;51.052;3.740;2022-11-03T16:32:38;13.80;99.90
59893;DHT22;45758;51.052;3.740;2022-11-03T16:35:04;13.70;99.90
59893;DHT22;45758;51.052;3.740;2022-11-03T16:37:30;13.70;99.90
59893;DHT22;45758;51.052;3.740;2022-11-03T16:39:56;13.60;99.90
59893;DHT22;45758;51.052;3.740;2022-11-03T16:42:22;13.60;99.90
59893;DHT22;45758;51.052;3.740;2022-11-03T16:44:47;13.60;99.90
59893;DHT22;45758;51.052;3.740;2022-11-03T16:47:13;13.70;99.90
59893;DHT22;45758;51.052;3.740;2022-11-03T16:49:40;13.70;99.90
59893;DHT22;45758;51.052;3.740;2022-11-03T16:52:07;13.70;99.90